sensor_id;sensor_type;location;lat;lon;timestamp;temperature;humidity
19025;DHT22;9645;51.448;6.260;2023-12-04T00:02:25;0.10;99.90
19025;DHT22;9645;51.448;6.260;2023-12-04T00:04:52;0.10;99.90
19025;DHT22;9645;51.448;6.260;2023-12-04T00:07:21;0.20;99.90
19025;DHT22;9645;51.448;6.260;2023-12-04T00:09:48;0.10;99.90
19025;DHT22;9645;51.448;6.260;2023-12-04T00:12:15;0.10;99.90
19025;DHT22;9645;51.448;6.260;2023-12-04T00:14:41;0.10;99.90
19025;DHT22;9645;51.448;6.260;2023-12-04T00:17:07;0.20;99.90
19025;DHT22;9645;51.448;6.260;2023-12-04T00:19:34;0.10;99.90
19025;DHT22;9645;51.448;6.260;2023-12-04T00:22:01;0.10;99.90
19025;DHT22;9645;51.448;6.260;2023-12-04T00:24:30;0.20;99.90
19025;DHT22;9645;51.448;6.260;2023-12-04T00:26:57;0.20;99.90
19025;DHT22;9645;51.448;6.260;2023-12-04T00:29:24;0.20;99.90
19025;DHT22;9645;51.448;6.260;2023-12-04T00:31:51;0.20;99.90
19025;DHT22;9645;51.448;6.260;2023-12-04T00:34:18;0.20;99.90
19025;DHT22;9645;51.448;6.260;2023-12-04T00:36:45;0.20;99.90
19025;DHT22;9645;51.448;6.260;2023-12-04T00:39:12;0.20;99.90
19025;DHT22;9645;51.448;6.260;2023-12-04T00:41:40;0.20;99.90
19025;DHT22;9645;51.448;6.260;2023-12-04T00:44:08;0.30;99.90
19025;DHT22;9645;51.448;6.260;2023-12-04T00:46:35;0.30;99.90
19025;DHT22;9645;51.448;6.260;2023-12-04T00:49:02;0.20;99.90
19025;DHT22;9645;51.448;6.260;2023-12-04T00:51:29;0.20;99.90
19025;DHT22;9645;51.448;6.260;2023-12-04T00:54:03;0.20;99.90
19025;DHT22;9645;51.448;6.260;2023-12-04T00:56:30;0.30;99.90
19025;DHT22;9645;51.448;6.260;2023-12-04T00:58:58;0.30;99.90
19025;DHT22;9645;51.448;6.260;2023-12-04T01:01:25;0.30;99.90
19025;DHT22;9645;51.448;6.260;2023-12-04T01:03:52;0.30;99.90
19025;DHT22;9645;51.448;6.260;2023-12-04T01:06:22;0.10;99.90
19025;DHT22;9645;51.448;6.260;2023-12-04T01:08:49;0.40;99.90
19025;DHT22;9645;51.448;6.260;2023-12-04T01:11:17;0.40;99.90
19025;DHT22;9645;51.448;6.260;2023-12-04T01:13:46;0.40;99.90
19025;DHT22;9645;51.448;6.260;2023-12-04T01:16:14;0.40;99.90
19025;DHT22;9645;51.448;6.260;2023-12-04T01:18:41;0.40;99.90
19025;DHT22;9645;51.448;6.260;2023-12-04T01:21:08;0.40;99.90
19025;DHT22;9645;51.448;6.260;2023-12-04T01:23:35;0.40;99.90
19025;DHT22;9645;51.448;6.260;2023-12-04T01:26:03;0.40;99.90
19025;DHT22;9645;51.448;6.260;2023-12-04T01:28:30;-0.20;99.90
19025;DHT22;9645;51.448;6.260;2023-12-04T01:30:57;0.50;99.90
19025;DHT22;9645;51.448;6.260;2023-12-04T01:33:25;0.40;99.90
19025;DHT22;9645;51.448;6.260;2023-12-04T01:35:52;0.50;99.90
19025;DHT22;9645;51.448;6.260;2023-12-04T01:38:19;0.50;99.90
19025;DHT22;9645;51.448;6.260;2023-12-04T01:40:46;0.40;99.90
19025;DHT22;9645;51.448;6.260;2023-12-04T01:43:13;0.40;99.90
19025;DHT22;9645;51.448;6.260;2023-12-04T01:45:40;0.50;99.90
19025;DHT22;9645;51.448;6.260;2023-12-04T01:48:08;0.40;99.90
19025;DHT22;9645;51.448;6.260;2023-12-04T01:50:37;0.50;99.90
19025;DHT22;9645;51.448;6.260;2023-12-04T01:53:05;0.40;99.90
19025;DHT22;9645;51.448;6.260;2023-12-04T01:55:33;0.50;99.90
19025;DHT22;9645;51.448;6.260;2023-12-04T01:58:01;0.40;99.90
19025;DHT22;9645;51.448;6.260;2023-12-04T02:00:29;0.40;99.90
19025;DHT22;9645;51.448;6.260;2023-12-04T02:02:58;0.40;99.90
19025;DHT22;9645;51.448;6.260;2023-12-04T02:05:26;0.40;99.90
19025;DHT22;9645;51.448;6.260;2023-12-04T02:07:55;0.50;99.90
19025;DHT22;9645;51.448;6.260;2023-12-04T02:10:22;0.40;99.90
19025;DHT22;9645;51.448;6.260;2023-12-04T02:12:51;0.50;99.90
19025;DHT22;9645;51.448;6.260;2023-12-04T02:15:18;0.40;99.90
19025;DHT22;9645;51.448;6.260;2023-12-04T02:17:46;0.40;99.90
19025;DHT22;9645;51.448;6.260;2023-12-04T02:20:13;0.40;99.90
19025;DHT22;9645;51.448;6.260;2023-12-04T02:22:40;0.30;99.90
19025;DHT22;9645;51.448;6.260;2023-12-04T02:25:10;0.30;99.90
19025;DHT22;9645;51.448;6.260;2023-12-04T02:27:40;0.40;99.90
19025;DHT22;9645;51.448;6.260;2023-12-04T02:30:13;0.30;99.90
19025;DHT22;9645;51.448;6.260;2023-12-04T02:32:45;0.40;99.90
19025;DHT22;9645;51.448;6.260;2023-12-04T02:35:14;0.40;99.90
19025;DHT22;9645;51.448;6.260;2023-12-04T02:37:42;0.40;99.90
19025;DHT22;9645;51.448;6.260;2023-12-04T02:40:12;0.40;99.90
19025;DHT22;9645;51.448;6.260;2023-12-04T02:42:40;0.40;99.90
19025;DHT22;9645;51.448;6.260;2023-12-04T02:45:08;0.40;99.90
19025;DHT22;9645;51.448;6.260;2023-12-04T02:47:35;0.40;99.90
19025;DHT22;9645;51.448;6.260;2023-12-04T02:50:02;0.40;99.90
19025;DHT22;9645;51.448;6.260;2023-12-04T02:52:29;0.30;99.90
19025;DHT22;9645;51.448;6.260;2023-12-04T02:54:56;0.30;99.90
19025;DHT22;9645;51.448;6.260;2023-12-04T02:57:24;0.40;99.90
19025;DHT22;9645;51.448;6.260;2023-12-04T02:59:51;0.40;99.90
19025;DHT22;9645;51.448;6.260;2023-12-04T03:02:18;0.40;99.90
19025;DHT22;9645;51.448;6.260;2023-12-04T03:04:46;0.40;99.90
19025;DHT22;9645;51.448;6.260;2023-12-04T03:07:13;0.40;99.90
19025;DHT22;9645;51.448;6.260;2023-12-04T03:09:45;0.40;99.90
19025;DHT22;9645;51.448;6.260;2023-12-04T03:12:12;0.40;99.90
19025;DHT22;9645;51.448;6.260;2023-12-04T03:14:41;0.40;99.90
19025;DHT22;9645;51.448;6.260;2023-12-04T03:17:08;0.40;99.90
19025;DHT22;9645;51.448;6.260;2023-12-04T03:19:35;0.30;99.90
19025;DHT22;9645;51.448;6.260;2023-12-04T03:22:02;0.40;99.90
19025;DHT22;9645;51.448;6.260;2023-12-04T03:24:29;0.40;99.90
19025;DHT22;9645;51.448;6.260;2023-12-04T03:26:57;0.40;99.90
19025;DHT22;9645;51.448;6.260;2023-12-04T03:29:24;0.40;99.90
19025;DHT22;9645;51.448;6.260;2023-12-04T03:31:52;0.40;99.90
19025;DHT22;9645;51.448;6.260;2023-12-04T03:34:19;0.30;99.90
19025;DHT22;9645;51.448;6.260;2023-12-04T03:36:46;1.10;99.90
19025;DHT22;9645;51.448;6.260;2023-12-04T03:39:13;0.40;99.90
19025;DHT22;9645;51.448;6.260;2023-12-04T03:41:40;0.30;99.90
19025;DHT22;9645;51.448;6.260;2023-12-04T03:44:07;0.40;99.90
19025;DHT22;9645;51.448;6.260;2023-12-04T03:46:34;0.40;99.90
19025;DHT22;9645;51.448;6.260;2023-12-04T03:49:02;0.40;99.90
19025;DHT22;9645;51.448;6.260;2023-12-04T03:51:29;0.40;99.90
19025;DHT22;9645;51.448;6.260;2023-12-04T03:53:56;0.30;99.90
19025;DHT22;9645;51.448;6.260;2023-12-04T03:56:23;0.30;99.90
19025;DHT22;9645;51.448;6.260;2023-12-04T03:58:50;0.30;99.90
19025;DHT22;9645;51.448;6.260;2023-12-04T04:01:17;0.30;99.90
19025;DHT22;9645;51.448;6.260;2023-12-04T04:03:44;0.30;99.90
19025;DHT22;9645;51.448;6.260;2023-12-04T04:06:12;0.30;99.90
19025;DHT22;9645;51.448;6.260;2023-12-04T04:08:39;0.30;99.90
19025;DHT22;9645;51.448;6.260;2023-12-04T04:11:07;0.30;99.90
19025;DHT22;9645;51.448;6.260;2023-12-04T04:13:34;0.30;99.90
19025;DHT22;9645;51.448;6.260;2023-12-04T04:16:01;0.30;99.90
19025;DHT22;9645;51.448;6.260;2023-12-04T04:18:27;0.30;99.90
19025;DHT22;9645;51.448;6.260;2023-12-04T04:20:54;0.30;99.90
19025;DHT22;9645;51.448;6.260;2023-12-04T04:23:23;0.30;99.90
19025;DHT22;9645;51.448;6.260;2023-12-04T04:25:50;0.30;99.90
19025;DHT22;9645;51.448;6.260;2023-12-04T04:28:17;0.30;99.90
19025;DHT22;9645;51.448;6.260;2023-12-04T04:30:44;0.30;99.90
19025;DHT22;9645;51.448;6.260;2023-12-04T04:33:11;0.30;99.90
19025;DHT22;9645;51.448;6.260;2023-12-04T04:35:37;0.30;99.90
19025;DHT22;9645;51.448;6.260;2023-12-04T04:38:04;0.30;99.90
19025;DHT22;9645;51.448;6.260;2023-12-04T04:40:33;0.30;99.90
19025;DHT22;9645;51.448;6.260;2023-12-04T04:43:00;0.30;99.90
19025;DHT22;9645;51.448;6.260;2023-12-04T04:45:27;0.30;99.90
19025;DHT22;9645;51.448;6.260;2023-12-04T04:47:53;0.30;99.90
19025;DHT22;9645;51.448;6.260;2023-12-04T04:50:20;0.30;99.90
19025;DHT22;9645;51.448;6.260;2023-12-04T04:52:47;0.40;99.90
19025;DHT22;9645;51.448;6.260;2023-12-04T04:55:14;0.30;99.90
19025;DHT22;9645;51.448;6.260;2023-12-04T04:57:43;0.30;99.90
19025;DHT22;9645;51.448;6.260;2023-12-04T05:00:11;0.30;99.90
19025;DHT22;9645;51.448;6.260;2023-12-04T05:02:38;0.30;99.90
19025;DHT22;9645;51.448;6.260;2023-12-04T05:05:06;0.30;99.90
19025;DHT22;9645;51.448;6.260;2023-12-04T05:07:33;0.30;99.90
19025;DHT22;9645;51.448;6.260;2023-12-04T05:10:00;0.30;99.90
19025;DHT22;9645;51.448;6.260;2023-12-04T05:12:27;0.30;99.90
19025;DHT22;9645;51.448;6.260;2023-12-04T05:14:55;0.30;99.90
19025;DHT22;9645;51.448;6.260;2023-12-04T05:17:22;0.30;99.90
19025;DHT22;9645;51.448;6.260;2023-12-04T05:19:51;0.30;99.90
19025;DHT22;9645;51.448;6.260;2023-12-04T05:22:19;0.20;99.90
19025;DHT22;9645;51.448;6.260;2023-12-04T05:24:47;0.20;99.90
19025;DHT22;9645;51.448;6.260;2023-12-04T05:27:13;0.20;99.90
19025;DHT22;9645;51.448;6.260;2023-12-04T05:29:41;0.20;99.90
19025;DHT22;9645;51.448;6.260;2023-12-04T05:32:09;0.20;99.90
19025;DHT22;9645;51.448;6.260;2023-12-04T05:34:36;0.20;99.90
19025;DHT22;9645;51.448;6.260;2023-12-04T05:37:03;0.20;99.90
19025;DHT22;9645;51.448;6.260;2023-12-04T05:39:30;0.20;99.90
19025;DHT22;9645;51.448;6.260;2023-12-04T05:41:57;0.20;99.90
19025;DHT22;9645;51.448;6.260;2023-12-04T05:44:24;0.20;99.90
19025;DHT22;9645;51.448;6.260;2023-12-04T05:46:51;0.20;99.90
19025;DHT22;9645;51.448;6.260;2023-12-04T05:49:19;0.30;99.90
19025;DHT22;9645;51.448;6.260;2023-12-04T05:51:47;0.30;99.90
19025;DHT22;9645;51.448;6.260;2023-12-04T05:54:14;0.30;99.90
19025;DHT22;9645;51.448;6.260;2023-12-04T05:56:40;0.30;99.90
19025;DHT22;9645;51.448;6.260;2023-12-04T05:59:08;0.30;99.90
19025;DHT22;9645;51.448;6.260;2023-12-04T06:01:36;0.30;99.90
19025;DHT22;9645;51.448;6.260;2023-12-04T06:04:03;0.40;99.90
19025;DHT22;9645;51.448;6.260;2023-12-04T06:06:32;0.40;99.90
19025;DHT22;9645;51.448;6.260;2023-12-04T06:08:59;0.30;99.90
19025;DHT22;9645;51.448;6.260;2023-12-04T06:11:25;0.30;99.90
19025;DHT22;9645;51.448;6.260;2023-12-04T06:13:52;0.40;99.90
19025;DHT22;9645;51.448;6.260;2023-12-04T06:16:19;0.50;99.90
19025;DHT22;9645;51.448;6.260;2023-12-04T06:18:46;0.30;99.90
19025;DHT22;9645;51.448;6.260;2023-12-04T06:21:14;0.30;99.90
19025;DHT22;9645;51.448;6.260;2023-12-04T06:23:42;0.30;99.90
19025;DHT22;9645;51.448;6.260;2023-12-04T06:26:11;0.30;93.50
19025;DHT22;9645;51.448;6.260;2023-12-04T06:28:39;0.30;1.00
19025;DHT22;9645;51.448;6.260;2023-12-04T06:31:07;0.40;1.00
19025;DHT22;9645;51.448;6.260;2023-12-04T06:33:35;0.40;1.00
19025;DHT22;9645;51.448;6.260;2023-12-04T06:36:02;0.40;1.00
19025;DHT22;9645;51.448;6.260;2023-12-04T06:38:32;0.40;1.00
19025;DHT22;9645;51.448;6.260;2023-12-04T06:41:02;0.50;99.90
19025;DHT22;9645;51.448;6.260;2023-12-04T06:43:30;0.50;1.00
19025;DHT22;9645;51.448;6.260;2023-12-04T06:45:57;0.50;1.00
19025;DHT22;9645;51.448;6.260;2023-12-04T06:48:25;0.50;1.00
19025;DHT22;9645;51.448;6.260;2023-12-04T06:50:52;0.60;69.20
19025;DHT22;9645;51.448;6.260;2023-12-04T06:53:19;0.60;1.00
19025;DHT22;9645;51.448;6.260;2023-12-04T06:55:46;0.60;1.00
19025;DHT22;9645;51.448;6.260;2023-12-04T06:58:14;0.50;1.00
19025;DHT22;9645;51.448;6.260;2023-12-04T07:00:41;0.50;26.40
19025;DHT22;9645;51.448;6.260;2023-12-04T07:03:08;0.50;99.90
19025;DHT22;9645;51.448;6.260;2023-12-04T07:05:35;0.50;99.90
19025;DHT22;9645;51.448;6.260;2023-12-04T07:08:02;0.40;1.00
19025;DHT22;9645;51.448;6.260;2023-12-04T07:10:29;0.40;1.00
19025;DHT22;9645;51.448;6.260;2023-12-04T07:12:57;0.40;1.00
19025;DHT22;9645;51.448;6.260;2023-12-04T07:15:25;0.40;1.00
19025;DHT22;9645;51.448;6.260;2023-12-04T07:17:52;0.50;99.90
19025;DHT22;9645;51.448;6.260;2023-12-04T07:20:20;0.50;1.00
19025;DHT22;9645;51.448;6.260;2023-12-04T07:22:49;0.60;1.00
19025;DHT22;9645;51.448;6.260;2023-12-04T07:25:16;0.50;93.00
19025;DHT22;9645;51.448;6.260;2023-12-04T07:27:43;0.60;1.00
19025;DHT22;9645;51.448;6.260;2023-12-04T07:30:10;0.60;99.90
19025;DHT22;9645;51.448;6.260;2023-12-04T07:32:39;0.60;99.90
19025;DHT22;9645;51.448;6.260;2023-12-04T07:35:07;0.60;1.00
19025;DHT22;9645;51.448;6.260;2023-12-04T07:37:34;0.60;99.90
19025;DHT22;9645;51.448;6.260;2023-12-04T07:40:01;0.60;1.00
19025;DHT22;9645;51.448;6.260;2023-12-04T07:42:29;0.70;99.90
19025;DHT22;9645;51.448;6.260;2023-12-04T07:44:56;0.70;99.90
19025;DHT22;9645;51.448;6.260;2023-12-04T07:47:23;0.70;1.00
19025;DHT22;9645;51.448;6.260;2023-12-04T07:49:51;0.70;1.00
19025;DHT22;9645;51.448;6.260;2023-12-04T07:52:18;0.70;99.90
19025;DHT22;9645;51.448;6.260;2023-12-04T07:54:46;0.70;1.00
19025;DHT22;9645;51.448;6.260;2023-12-04T07:57:13;0.80;99.90
19025;DHT22;9645;51.448;6.260;2023-12-04T07:59:40;0.80;1.00
19025;DHT22;9645;51.448;6.260;2023-12-04T08:02:08;0.80;99.90
19025;DHT22;9645;51.448;6.260;2023-12-04T08:04:35;0.80;1.00
19025;DHT22;9645;51.448;6.260;2023-12-04T08:07:04;0.80;1.00
19025;DHT22;9645;51.448;6.260;2023-12-04T08:09:31;0.80;99.90
19025;DHT22;9645;51.448;6.260;2023-12-04T08:11:58;0.70;1.00
19025;DHT22;9645;51.448;6.260;2023-12-04T08:14:25;0.80;99.90
19025;DHT22;9645;51.448;6.260;2023-12-04T08:16:53;0.90;1.00
19025;DHT22;9645;51.448;6.260;2023-12-04T08:19:20;0.90;1.00
19025;DHT22;9645;51.448;6.260;2023-12-04T08:21:50;0.90;99.90
19025;DHT22;9645;51.448;6.260;2023-12-04T08:24:18;0.90;1.00
19025;DHT22;9645;51.448;6.260;2023-12-04T08:26:45;1.00;99.90
19025;DHT22;9645;51.448;6.260;2023-12-04T08:29:13;1.00;99.90
19025;DHT22;9645;51.448;6.260;2023-12-04T08:31:40;1.00;1.00
19025;DHT22;9645;51.448;6.260;2023-12-04T08:34:07;1.00;1.00
19025;DHT22;9645;51.448;6.260;2023-12-04T08:36:34;1.10;99.90
19025;DHT22;9645;51.448;6.260;2023-12-04T08:39:01;1.20;1.00
19025;DHT22;9645;51.448;6.260;2023-12-04T08:41:31;1.20;1.00
19025;DHT22;9645;51.448;6.260;2023-12-04T08:43:58;1.10;99.90
19025;DHT22;9645;51.448;6.260;2023-12-04T08:46:25;1.10;55.20
19025;DHT22;9645;51.448;6.260;2023-12-04T08:48:51;0.80;1.00
19025;DHT22;9645;51.448;6.260;2023-12-04T08:51:19;1.10;1.00
19025;DHT22;9645;51.448;6.260;2023-12-04T08:53:48;1.10;1.00
19025;DHT22;9645;51.448;6.260;2023-12-04T08:56:16;1.10;1.00
19025;DHT22;9645;51.448;6.260;2023-12-04T08:58:45;1.10;1.00
19025;DHT22;9645;51.448;6.260;2023-12-04T09:01:12;1.10;1.00
19025;DHT22;9645;51.448;6.260;2023-12-04T09:03:40;1.10;99.90
19025;DHT22;9645;51.448;6.260;2023-12-04T09:06:09;1.10;99.90
19025;DHT22;9645;51.448;6.260;2023-12-04T09:08:36;1.10;99.90
19025;DHT22;9645;51.448;6.260;2023-12-04T09:11:03;1.10;99.90
19025;DHT22;9645;51.448;6.260;2023-12-04T09:13:30;1.10;1.00
19025;DHT22;9645;51.448;6.260;2023-12-04T09:16:01;1.20;99.90
19025;DHT22;9645;51.448;6.260;2023-12-04T09:18:28;1.20;1.00
19025;DHT22;9645;51.448;6.260;2023-12-04T09:20:55;1.20;1.00
19025;DHT22;9645;51.448;6.260;2023-12-04T09:23:22;1.20;1.00
19025;DHT22;9645;51.448;6.260;2023-12-04T09:25:49;1.20;1.00
19025;DHT22;9645;51.448;6.260;2023-12-04T09:28:16;1.20;1.00
19025;DHT22;9645;51.448;6.260;2023-12-04T09:30:43;1.30;99.90
19025;DHT22;9645;51.448;6.260;2023-12-04T09:33:12;1.30;99.90
19025;DHT22;9645;51.448;6.260;2023-12-04T09:35:39;1.30;99.90
19025;DHT22;9645;51.448;6.260;2023-12-04T09:38:06;1.30;99.90
19025;DHT22;9645;51.448;6.260;2023-12-04T09:40:33;1.30;26.00
19025;DHT22;9645;51.448;6.260;2023-12-04T09:43:00;1.30;99.90
19025;DHT22;9645;51.448;6.260;2023-12-04T09:45:29;1.30;1.00
19025;DHT22;9645;51.448;6.260;2023-12-04T09:47:58;1.40;99.90
19025;DHT22;9645;51.448;6.260;2023-12-04T09:50:27;1.40;99.90
19025;DHT22;9645;51.448;6.260;2023-12-04T09:52:55;1.40;1.00
19025;DHT22;9645;51.448;6.260;2023-12-04T09:55:24;1.40;1.00
19025;DHT22;9645;51.448;6.260;2023-12-04T09:57:51;1.40;1.00
19025;DHT22;9645;51.448;6.260;2023-12-04T10:00:20;1.40;1.00
19025;DHT22;9645;51.448;6.260;2023-12-04T10:02:50;1.40;1.00
19025;DHT22;9645;51.448;6.260;2023-12-04T10:05:17;1.40;1.00
19025;DHT22;9645;51.448;6.260;2023-12-04T10:07:48;1.40;1.00
19025;DHT22;9645;51.448;6.260;2023-12-04T10:10:15;1.40;1.00
19025;DHT22;9645;51.448;6.260;2023-12-04T10:12:43;1.40;1.00
19025;DHT22;9645;51.448;6.260;2023-12-04T10:15:11;1.50;1.00
19025;DHT22;9645;51.448;6.260;2023-12-04T10:17:41;1.50;1.00
19025;DHT22;9645;51.448;6.260;2023-12-04T10:20:10;1.50;1.00
19025;DHT22;9645;51.448;6.260;2023-12-04T10:22:39;1.50;1.00
19025;DHT22;9645;51.448;6.260;2023-12-04T10:25:17;1.60;1.00
19025;DHT22;9645;51.448;6.260;2023-12-04T10:27:44;1.60;1.00
19025;DHT22;9645;51.448;6.260;2023-12-04T10:30:23;1.70;1.00
19025;DHT22;9645;51.448;6.260;2023-12-04T10:32:54;1.70;1.00
19025;DHT22;9645;51.448;6.260;2023-12-04T10:35:21;1.70;1.00
19025;DHT22;9645;51.448;6.260;2023-12-04T10:37:52;1.70;1.00
19025;DHT22;9645;51.448;6.260;2023-12-04T10:40:26;1.70;1.00
19025;DHT22;9645;51.448;6.260;2023-12-04T10:43:10;1.80;1.00
19025;DHT22;9645;51.448;6.260;2023-12-04T10:45:38;1.80;1.00
19025;DHT22;9645;51.448;6.260;2023-12-04T10:48:06;1.90;1.00
19025;DHT22;9645;51.448;6.260;2023-12-04T10:50:33;2.00;1.00
19025;DHT22;9645;51.448;6.260;2023-12-04T10:53:01;1.90;1.00
19025;DHT22;9645;51.448;6.260;2023-12-04T10:55:31;2.00;1.00
19025;DHT22;9645;51.448;6.260;2023-12-04T10:57:59;2.00;1.00
19025;DHT22;9645;51.448;6.260;2023-12-04T11:00:30;2.00;1.00
19025;DHT22;9645;51.448;6.260;2023-12-04T11:03:04;2.10;1.00
19025;DHT22;9645;51.448;6.260;2023-12-04T11:05:33;2.10;99.90
19025;DHT22;9645;51.448;6.260;2023-12-04T11:08:02;2.20;1.00
19025;DHT22;9645;51.448;6.260;2023-12-04T11:10:33;2.20;99.90
19025;DHT22;9645;51.448;6.260;2023-12-04T11:13:03;2.10;99.90
19025;DHT22;9645;51.448;6.260;2023-12-04T11:15:35;2.10;1.00
19025;DHT22;9645;51.448;6.260;2023-12-04T11:18:04;2.10;99.90
19025;DHT22;9645;51.448;6.260;2023-12-04T11:20:39;2.10;1.00
19025;DHT22;9645;51.448;6.260;2023-12-04T11:23:06;2.00;99.90
19025;DHT22;9645;51.448;6.260;2023-12-04T11:25:36;2.00;1.00
19025;DHT22;9645;51.448;6.260;2023-12-04T11:28:04;2.00;1.00
19025;DHT22;9645;51.448;6.260;2023-12-04T11:30:32;2.00;1.00
19025;DHT22;9645;51.448;6.260;2023-12-04T11:33:00;2.00;1.00
19025;DHT22;9645;51.448;6.260;2023-12-04T11:35:28;2.10;9.20
19025;DHT22;9645;51.448;6.260;2023-12-04T11:37:56;2.00;99.90
19025;DHT22;9645;51.448;6.260;2023-12-04T11:40:23;2.00;1.00
19025;DHT22;9645;51.448;6.260;2023-12-04T11:42:53;2.00;96.10
19025;DHT22;9645;51.448;6.260;2023-12-04T11:45:20;2.10;1.00
19025;DHT22;9645;51.448;6.260;2023-12-04T11:47:51;2.10;99.90
19025;DHT22;9645;51.448;6.260;2023-12-04T11:50:19;2.10;1.00
19025;DHT22;9645;51.448;6.260;2023-12-04T11:52:47;2.10;1.00
19025;DHT22;9645;51.448;6.260;2023-12-04T11:55:17;2.10;1.00
19025;DHT22;9645;51.448;6.260;2023-12-04T11:57:45;2.10;1.00
19025;DHT22;9645;51.448;6.260;2023-12-04T12:00:20;2.10;1.00
19025;DHT22;9645;51.448;6.260;2023-12-04T12:03:00;2.10;1.00
19025;DHT22;9645;51.448;6.260;2023-12-04T12:05:28;2.10;1.00
19025;DHT22;9645;51.448;6.260;2023-12-04T12:08:00;2.20;1.00
19025;DHT22;9645;51.448;6.260;2023-12-04T12:10:27;2.20;1.00
19025;DHT22;9645;51.448;6.260;2023-12-04T12:12:56;2.10;1.00
19025;DHT22;9645;51.448;6.260;2023-12-04T12:15:25;2.00;24.50
19025;DHT22;9645;51.448;6.260;2023-12-04T12:17:52;2.00;88.60
19025;DHT22;9645;51.448;6.260;2023-12-04T12:20:20;1.90;99.90
19025;DHT22;9645;51.448;6.260;2023-12-04T12:22:48;1.90;99.90
19025;DHT22;9645;51.448;6.260;2023-12-04T12:25:15;2.00;99.90
19025;DHT22;9645;51.448;6.260;2023-12-04T12:27:43;2.00;99.90
19025;DHT22;9645;51.448;6.260;2023-12-04T12:30:13;2.00;99.90
19025;DHT22;9645;51.448;6.260;2023-12-04T12:32:41;2.00;99.90
19025;DHT22;9645;51.448;6.260;2023-12-04T12:35:08;2.10;99.90
19025;DHT22;9645;51.448;6.260;2023-12-04T12:37:37;2.10;99.90
19025;DHT22;9645;51.448;6.260;2023-12-04T12:40:06;2.10;99.90
19025;DHT22;9645;51.448;6.260;2023-12-04T12:42:35;2.10;99.90
19025;DHT22;9645;51.448;6.260;2023-12-04T12:45:02;2.00;99.90
19025;DHT22;9645;51.448;6.260;2023-12-04T12:47:30;2.00;99.90
19025;DHT22;9645;51.448;6.260;2023-12-04T12:50:00;1.90;99.90
19025;DHT22;9645;51.448;6.260;2023-12-04T12:52:28;1.80;99.90
19025;DHT22;9645;51.448;6.260;2023-12-04T12:54:55;1.80;99.90
19025;DHT22;9645;51.448;6.260;2023-12-04T12:57:22;2.00;99.90
19025;DHT22;9645;51.448;6.260;2023-12-04T12:59:51;2.10;99.90
19025;DHT22;9645;51.448;6.260;2023-12-04T13:02:20;2.10;99.90
19025;DHT22;9645;51.448;6.260;2023-12-04T13:04:47;2.00;99.90
19025;DHT22;9645;51.448;6.260;2023-12-04T13:07:15;2.00;99.90
19025;DHT22;9645;51.448;6.260;2023-12-04T13:09:44;1.90;99.90
19025;DHT22;9645;51.448;6.260;2023-12-04T13:12:12;1.90;99.90
19025;DHT22;9645;51.448;6.260;2023-12-04T13:14:40;1.80;99.90
19025;DHT22;9645;51.448;6.260;2023-12-04T13:17:07;1.80;99.90
19025;DHT22;9645;51.448;6.260;2023-12-04T13:19:34;1.70;99.90
19025;DHT22;9645;51.448;6.260;2023-12-04T13:22:02;1.60;99.90
19025;DHT22;9645;51.448;6.260;2023-12-04T13:24:31;1.70;99.90
19025;DHT22;9645;51.448;6.260;2023-12-04T13:26:58;1.60;99.90
19025;DHT22;9645;51.448;6.260;2023-12-04T13:29:24;1.60;99.90
19025;DHT22;9645;51.448;6.260;2023-12-04T13:31:51;1.60;99.90
19025;DHT22;9645;51.448;6.260;2023-12-04T13:34:19;1.60;99.90
19025;DHT22;9645;51.448;6.260;2023-12-04T13:36:46;1.60;99.90
19025;DHT22;9645;51.448;6.260;2023-12-04T13:39:13;1.70;99.90
19025;DHT22;9645;51.448;6.260;2023-12-04T13:41:47;1.70;99.90
19025;DHT22;9645;51.448;6.260;2023-12-04T13:44:32;1.70;99.90
19025;DHT22;9645;51.448;6.260;2023-12-04T13:46:59;1.70;99.90
19025;DHT22;9645;51.448;6.260;2023-12-04T13:49:26;1.60;99.90
19025;DHT22;9645;51.448;6.260;2023-12-04T13:51:54;1.60;99.90
19025;DHT22;9645;51.448;6.260;2023-12-04T13:54:21;1.60;99.90
19025;DHT22;9645;51.448;6.260;2023-12-04T13:57:01;1.60;99.90
19025;DHT22;9645;51.448;6.260;2023-12-04T13:59:29;1.60;99.90
19025;DHT22;9645;51.448;6.260;2023-12-04T14:01:59;1.60;99.90
19025;DHT22;9645;51.448;6.260;2023-12-04T14:04:28;1.60;99.90
19025;DHT22;9645;51.448;6.260;2023-12-04T14:06:55;1.60;99.90
19025;DHT22;9645;51.448;6.260;2023-12-04T14:09:22;1.60;99.90
19025;DHT22;9645;51.448;6.260;2023-12-04T14:11:49;1.60;99.90
19025;DHT22;9645;51.448;6.260;2023-12-04T14:14:18;1.60;99.90
19025;DHT22;9645;51.448;6.260;2023-12-04T14:16:45;1.60;99.90
19025;DHT22;9645;51.448;6.260;2023-12-04T14:19:12;1.60;99.90
19025;DHT22;9645;51.448;6.260;2023-12-04T14:21:42;1.60;99.90
19025;DHT22;9645;51.448;6.260;2023-12-04T14:24:09;2.10;99.90
19025;DHT22;9645;51.448;6.260;2023-12-04T14:26:36;1.60;99.90
19025;DHT22;9645;51.448;6.260;2023-12-04T14:29:03;1.60;99.90
19025;DHT22;9645;51.448;6.260;2023-12-04T14:31:33;1.50;99.90
19025;DHT22;9645;51.448;6.260;2023-12-04T14:34:00;1.50;99.90
19025;DHT22;9645;51.448;6.260;2023-12-04T14:36:29;1.50;99.90
19025;DHT22;9645;51.448;6.260;2023-12-04T14:38:56;1.50;99.90
19025;DHT22;9645;51.448;6.260;2023-12-04T14:41:23;1.50;99.90
19025;DHT22;9645;51.448;6.260;2023-12-04T14:43:51;1.50;99.90
19025;DHT22;9645;51.448;6.260;2023-12-04T14:46:19;1.50;99.90
19025;DHT22;9645;51.448;6.260;2023-12-04T14:48:49;1.50;99.90
19025;DHT22;9645;51.448;6.260;2023-12-04T14:51:16;1.50;99.90
19025;DHT22;9645;51.448;6.260;2023-12-04T14:53:44;1.50;99.90
19025;DHT22;9645;51.448;6.260;2023-12-04T14:56:16;1.50;99.90
19025;DHT22;9645;51.448;6.260;2023-12-04T14:58:57;1.50;99.90
19025;DHT22;9645;51.448;6.260;2023-12-04T15:01:41;1.50;99.90
19025;DHT22;9645;51.448;6.260;2023-12-04T15:04:23;1.50;99.90
19025;DHT22;9645;51.448;6.260;2023-12-04T15:07:04;1.50;99.90
19025;DHT22;9645;51.448;6.260;2023-12-04T15:10:01;1.50;99.90
19025;DHT22;9645;51.448;6.260;2023-12-04T15:12:46;1.50;99.90
19025;DHT22;9645;51.448;6.260;2023-12-04T15:15:53;1.50;99.90
19025;DHT22;9645;51.448;6.260;2023-12-04T15:18:45;1.40;99.90
19025;DHT22;9645;51.448;6.260;2023-12-04T15:21:38;1.40;99.90
19025;DHT22;9645;51.448;6.260;2023-12-04T15:24:06;1.40;99.90
19025;DHT22;9645;51.448;6.260;2023-12-04T15:26:34;1.40;99.90
19025;DHT22;9645;51.448;6.260;2023-12-04T15:29:00;1.40;99.90
19025;DHT22;9645;51.448;6.260;2023-12-04T15:31:30;1.30;99.90
19025;DHT22;9645;51.448;6.260;2023-12-04T15:33:56;1.30;99.90
19025;DHT22;9645;51.448;6.260;2023-12-04T15:36:23;1.30;99.90
19025;DHT22;9645;51.448;6.260;2023-12-04T15:38:50;1.30;99.90
19025;DHT22;9645;51.448;6.260;2023-12-04T15:41:17;1.20;99.90
19025;DHT22;9645;51.448;6.260;2023-12-04T15:43:46;1.20;99.90
19025;DHT22;9645;51.448;6.260;2023-12-04T15:46:15;1.20;99.90
19025;DHT22;9645;51.448;6.260;2023-12-04T15:48:41;1.20;99.90
19025;DHT22;9645;51.448;6.260;2023-12-04T15:51:08;1.20;99.90
19025;DHT22;9645;51.448;6.260;2023-12-04T15:53:34;1.20;99.90
19025;DHT22;9645;51.448;6.260;2023-12-04T15:56:03;1.20;99.90
19025;DHT22;9645;51.448;6.260;2023-12-04T15:58:30;1.10;99.90
19025;DHT22;9645;51.448;6.260;2023-12-04T16:00:58;1.20;99.90
19025;DHT22;9645;51.448;6.260;2023-12-04T16:03:24;1.10;99.90
19025;DHT22;9645;51.448;6.260;2023-12-04T16:05:51;1.10;99.90
19025;DHT22;9645;51.448;6.260;2023-12-04T16:08:18;1.10;99.90
19025;DHT22;9645;51.448;6.260;2023-12-04T16:10:45;1.10;99.90
19025;DHT22;9645;51.448;6.260;2023-12-04T16:13:15;1.10;99.90